sensor_id;sensor_type;location;lat;lon;timestamp;P1;durP1;ratioP1;P2;durP2;ratioP2
6105;SDS011;3083;51.508;7.966;2023-04-23T00:01:49;28.17;;;14.80;;
6105;SDS011;3083;51.508;7.966;2023-04-23T00:04:21;27.20;;;13.33;;
6105;SDS011;3083;51.508;7.966;2023-04-23T00:06:50;27.07;;;14.00;;
6105;SDS011;3083;51.508;7.966;2023-04-23T00:09:19;26.40;;;14.47;;
6105;SDS011;3083;51.508;7.966;2023-04-23T00:11:49;26.23;;;14.20;;
6105;SDS011;3083;51.508;7.966;2023-04-23T00:14:16;27.77;;;13.53;;
6105;SDS011;3083;51.508;7.966;2023-04-23T00:16:44;27.80;;;14.00;;
6105;SDS011;3083;51.508;7.966;2023-04-23T00:19:11;25.80;;;13.50;;
6105;SDS011;3083;51.508;7.966;2023-04-23T00:21:38;28.57;;;14.20;;
6105;SDS011;3083;51.508;7.966;2023-04-23T00:24:06;29.20;;;14.30;;
6105;SDS011;3083;51.508;7.966;2023-04-23T00:26:34;26.83;;;13.80;;
6105;SDS011;3083;51.508;7.966;2023-04-23T00:29:01;31.87;;;15.17;;
6105;SDS011;3083;51.508;7.966;2023-04-23T00:31:28;28.57;;;14.40;;
6105;SDS011;3083;51.508;7.966;2023-04-23T00:33:55;30.43;;;14.20;;
6105;SDS011;3083;51.508;7.966;2023-04-23T00:36:22;30.67;;;15.23;;
6105;SDS011;3083;51.508;7.966;2023-04-23T00:38:50;32.37;;;16.43;;
6105;SDS011;3083;51.508;7.966;2023-04-23T00:41:17;33.87;;;15.90;;
6105;SDS011;3083;51.508;7.966;2023-04-23T00:43:46;36.67;;;17.37;;
6105;SDS011;3083;51.508;7.966;2023-04-23T00:46:16;43.03;;;19.50;;
6105;SDS011;3083;51.508;7.966;2023-04-23T00:48:44;41.27;;;19.30;;
6105;SDS011;3083;51.508;7.966;2023-04-23T00:51:11;42.63;;;19.07;;
6105;SDS011;3083;51.508;7.966;2023-04-23T00:53:38;48.43;;;20.57;;
6105;SDS011;3083;51.508;7.966;2023-04-23T00:56:05;52.80;;;20.87;;
6105;SDS011;3083;51.508;7.966;2023-04-23T00:58:32;49.43;;;22.40;;
6105;SDS011;3083;51.508;7.966;2023-04-23T01:01:01;56.23;;;23.30;;
6105;SDS011;3083;51.508;7.966;2023-04-23T01:03:28;55.00;;;22.20;;
6105;SDS011;3083;51.508;7.966;2023-04-23T01:05:56;48.87;;;22.40;;
6105;SDS011;3083;51.508;7.966;2023-04-23T01:08:24;46.37;;;20.50;;
6105;SDS011;3083;51.508;7.966;2023-04-23T01:10:51;37.43;;;17.47;;
6105;SDS011;3083;51.508;7.966;2023-04-23T01:13:19;34.73;;;16.40;;
6105;SDS011;3083;51.508;7.966;2023-04-23T01:15:46;36.13;;;16.23;;
6105;SDS011;3083;51.508;7.966;2023-04-23T01:18:15;35.63;;;16.70;;
6105;SDS011;3083;51.508;7.966;2023-04-23T01:20:43;34.43;;;15.97;;
6105;SDS011;3083;51.508;7.966;2023-04-23T01:23:12;35.83;;;16.53;;
6105;SDS011;3083;51.508;7.966;2023-04-23T01:25:39;36.77;;;17.07;;
6105;SDS011;3083;51.508;7.966;2023-04-23T01:28:06;33.40;;;16.73;;
6105;SDS011;3083;51.508;7.966;2023-04-23T01:30:35;36.00;;;16.83;;
6105;SDS011;3083;51.508;7.966;2023-04-23T01:33:03;33.80;;;16.73;;
6105;SDS011;3083;51.508;7.966;2023-04-23T01:35:31;35.90;;;18.00;;
6105;SDS011;3083;51.508;7.966;2023-04-23T01:38:00;37.60;;;17.53;;
6105;SDS011;3083;51.508;7.966;2023-04-23T01:40:30;37.33;;;17.40;;
6105;SDS011;3083;51.508;7.966;2023-04-23T01:42:57;32.90;;;16.30;;
6105;SDS011;3083;51.508;7.966;2023-04-23T01:45:24;40.27;;;17.67;;
6105;SDS011;3083;51.508;7.966;2023-04-23T01:47:51;37.67;;;17.17;;
6105;SDS011;3083;51.508;7.966;2023-04-23T01:50:18;35.53;;;17.10;;
6105;SDS011;3083;51.508;7.966;2023-04-23T01:52:47;35.53;;;16.37;;
6105;SDS011;3083;51.508;7.966;2023-04-23T01:55:14;33.10;;;16.20;;
6105;SDS011;3083;51.508;7.966;2023-04-23T01:57:44;38.73;;;17.13;;
6105;SDS011;3083;51.508;7.966;2023-04-23T02:00:12;33.77;;;15.60;;
6105;SDS011;3083;51.508;7.966;2023-04-23T02:02:41;39.60;;;16.43;;
6105;SDS011;3083;51.508;7.966;2023-04-23T02:05:10;36.70;;;17.00;;
6105;SDS011;3083;51.508;7.966;2023-04-23T02:07:38;33.77;;;15.73;;
6105;SDS011;3083;51.508;7.966;2023-04-23T02:10:06;34.47;;;16.40;;
6105;SDS011;3083;51.508;7.966;2023-04-23T02:12:34;33.53;;;15.93;;
6105;SDS011;3083;51.508;7.966;2023-04-23T02:15:03;34.30;;;15.87;;
6105;SDS011;3083;51.508;7.966;2023-04-23T02:17:32;37.33;;;17.43;;
6105;SDS011;3083;51.508;7.966;2023-04-23T02:19:59;34.40;;;16.27;;
6105;SDS011;3083;51.508;7.966;2023-04-23T02:22:26;34.53;;;16.37;;
6105;SDS011;3083;51.508;7.966;2023-04-23T02:24:53;34.10;;;15.60;;
6105;SDS011;3083;51.508;7.966;2023-04-23T02:27:20;33.83;;;15.23;;
6105;SDS011;3083;51.508;7.966;2023-04-23T02:29:47;37.67;;;17.30;;
6105;SDS011;3083;51.508;7.966;2023-04-23T02:32:17;33.10;;;15.07;;
6105;SDS011;3083;51.508;7.966;2023-04-23T02:34:44;31.60;;;15.63;;
6105;SDS011;3083;51.508;7.966;2023-04-23T02:37:11;38.30;;;17.17;;
6105;SDS011;3083;51.508;7.966;2023-04-23T02:39:38;33.07;;;16.67;;
6105;SDS011;3083;51.508;7.966;2023-04-23T02:42:05;31.43;;;15.60;;
6105;SDS011;3083;51.508;7.966;2023-04-23T02:44:32;37.87;;;16.33;;
6105;SDS011;3083;51.508;7.966;2023-04-23T02:46:59;35.53;;;15.60;;
6105;SDS011;3083;51.508;7.966;2023-04-23T02:49:27;37.17;;;17.50;;
6105;SDS011;3083;51.508;7.966;2023-04-23T02:51:54;34.37;;;16.23;;
6105;SDS011;3083;51.508;7.966;2023-04-23T02:54:21;37.07;;;16.33;;
6105;SDS011;3083;51.508;7.966;2023-04-23T02:56:48;38.07;;;16.93;;
6105;SDS011;3083;51.508;7.966;2023-04-23T02:59:15;34.57;;;15.63;;
6105;SDS011;3083;51.508;7.966;2023-04-23T03:01:42;32.23;;;15.87;;
6105;SDS011;3083;51.508;7.966;2023-04-23T03:04:09;35.00;;;16.17;;
6105;SDS011;3083;51.508;7.966;2023-04-23T03:06:38;34.57;;;15.73;;
6105;SDS011;3083;51.508;7.966;2023-04-23T03:09:06;30.47;;;15.40;;
6105;SDS011;3083;51.508;7.966;2023-04-23T03:11:33;31.83;;;15.33;;
6105;SDS011;3083;51.508;7.966;2023-04-23T03:13:59;32.53;;;14.83;;
6105;SDS011;3083;51.508;7.966;2023-04-23T03:16:27;35.53;;;15.90;;
6105;SDS011;3083;51.508;7.966;2023-04-23T03:18:55;36.73;;;15.37;;
6105;SDS011;3083;51.508;7.966;2023-04-23T03:21:22;28.00;;;14.43;;
6105;SDS011;3083;51.508;7.966;2023-04-23T03:23:50;32.77;;;15.80;;
6105;SDS011;3083;51.508;7.966;2023-04-23T03:26:17;30.20;;;15.43;;
6105;SDS011;3083;51.508;7.966;2023-04-23T03:28:44;30.13;;;14.27;;
6105;SDS011;3083;51.508;7.966;2023-04-23T03:31:11;31.13;;;14.67;;
6105;SDS011;3083;51.508;7.966;2023-04-23T03:33:38;28.43;;;14.17;;
6105;SDS011;3083;51.508;7.966;2023-04-23T03:36:05;32.90;;;15.93;;
6105;SDS011;3083;51.508;7.966;2023-04-23T03:38:32;30.10;;;14.47;;
6105;SDS011;3083;51.508;7.966;2023-04-23T03:41:00;32.27;;;14.13;;
6105;SDS011;3083;51.508;7.966;2023-04-23T03:43:27;33.50;;;14.23;;
6105;SDS011;3083;51.508;7.966;2023-04-23T03:45:54;32.63;;;15.10;;
6105;SDS011;3083;51.508;7.966;2023-04-23T03:48:21;28.03;;;13.60;;
6105;SDS011;3083;51.508;7.966;2023-04-23T03:50:48;27.97;;;13.70;;
6105;SDS011;3083;51.508;7.966;2023-04-23T03:53:15;28.80;;;13.97;;
6105;SDS011;3083;51.508;7.966;2023-04-23T03:55:43;28.60;;;13.50;;
6105;SDS011;3083;51.508;7.966;2023-04-23T03:58:11;37.33;;;14.70;;
6105;SDS011;3083;51.508;7.966;2023-04-23T04:00:38;31.53;;;14.90;;
6105;SDS011;3083;51.508;7.966;2023-04-23T04:03:05;33.17;;;15.80;;
6105;SDS011;3083;51.508;7.966;2023-04-23T04:05:32;35.07;;;16.53;;
6105;SDS011;3083;51.508;7.966;2023-04-23T04:07:59;36.70;;;17.07;;
6105;SDS011;3083;51.508;7.966;2023-04-23T04:10:27;32.00;;;15.40;;
6105;SDS011;3083;51.508;7.966;2023-04-23T04:12:54;32.93;;;15.17;;
6105;SDS011;3083;51.508;7.966;2023-04-23T04:15:22;34.80;;;15.53;;
6105;SDS011;3083;51.508;7.966;2023-04-23T04:17:49;33.13;;;16.10;;
6105;SDS011;3083;51.508;7.966;2023-04-23T04:20:16;31.60;;;14.60;;
6105;SDS011;3083;51.508;7.966;2023-04-23T04:22:43;34.40;;;16.20;;
6105;SDS011;3083;51.508;7.966;2023-04-23T04:25:10;34.70;;;16.20;;
6105;SDS011;3083;51.508;7.966;2023-04-23T04:27:38;35.47;;;16.00;;
6105;SDS011;3083;51.508;7.966;2023-04-23T04:30:06;35.13;;;16.23;;
6105;SDS011;3083;51.508;7.966;2023-04-23T04:32:35;39.17;;;18.40;;
6105;SDS011;3083;51.508;7.966;2023-04-23T04:35:03;36.57;;;16.13;;
6105;SDS011;3083;51.508;7.966;2023-04-23T04:37:30;40.70;;;17.07;;
6105;SDS011;3083;51.508;7.966;2023-04-23T04:39:57;36.33;;;16.20;;
6105;SDS011;3083;51.508;7.966;2023-04-23T04:42:25;41.50;;;17.40;;
6105;SDS011;3083;51.508;7.966;2023-04-23T04:44:52;38.37;;;17.37;;
6105;SDS011;3083;51.508;7.966;2023-04-23T04:47:22;34.93;;;17.00;;
6105;SDS011;3083;51.508;7.966;2023-04-23T04:49:50;39.43;;;17.80;;
6105;SDS011;3083;51.508;7.966;2023-04-23T04:52:21;45.03;;;18.60;;
6105;SDS011;3083;51.508;7.966;2023-04-23T04:54:48;37.80;;;17.60;;
6105;SDS011;3083;51.508;7.966;2023-04-23T04:57:15;42.60;;;18.13;;
6105;SDS011;3083;51.508;7.966;2023-04-23T04:59:42;34.60;;;16.67;;
6105;SDS011;3083;51.508;7.966;2023-04-23T05:02:10;38.00;;;16.97;;
6105;SDS011;3083;51.508;7.966;2023-04-23T05:04:36;34.57;;;16.10;;
6105;SDS011;3083;51.508;7.966;2023-04-23T05:07:05;33.70;;;16.47;;
6105;SDS011;3083;51.508;7.966;2023-04-23T05:09:32;38.83;;;17.10;;
6105;SDS011;3083;51.508;7.966;2023-04-23T05:11:58;37.40;;;17.40;;
6105;SDS011;3083;51.508;7.966;2023-04-23T05:14:26;39.27;;;18.10;;
6105;SDS011;3083;51.508;7.966;2023-04-23T05:16:53;35.67;;;16.50;;
6105;SDS011;3083;51.508;7.966;2023-04-23T05:19:19;32.43;;;15.03;;
6105;SDS011;3083;51.508;7.966;2023-04-23T05:21:47;25.97;;;13.47;;
6105;SDS011;3083;51.508;7.966;2023-04-23T05:24:16;24.80;;;13.33;;
6105;SDS011;3083;51.508;7.966;2023-04-23T05:26:43;23.63;;;12.67;;
6105;SDS011;3083;51.508;7.966;2023-04-23T05:29:09;24.73;;;12.13;;
6105;SDS011;3083;51.508;7.966;2023-04-23T05:31:38;25.20;;;11.63;;
6105;SDS011;3083;51.508;7.966;2023-04-23T05:34:05;19.43;;;10.10;;
6105;SDS011;3083;51.508;7.966;2023-04-23T05:36:32;22.17;;;10.80;;
6105;SDS011;3083;51.508;7.966;2023-04-23T05:38:59;19.57;;;10.53;;
6105;SDS011;3083;51.508;7.966;2023-04-23T05:41:27;21.27;;;10.07;;
6105;SDS011;3083;51.508;7.966;2023-04-23T05:43:54;17.93;;;10.00;;
6105;SDS011;3083;51.508;7.966;2023-04-23T05:46:21;20.07;;;11.23;;
6105;SDS011;3083;51.508;7.966;2023-04-23T05:48:48;18.53;;;10.07;;
6105;SDS011;3083;51.508;7.966;2023-04-23T05:51:15;17.80;;;9.73;;
6105;SDS011;3083;51.508;7.966;2023-04-23T05:53:42;17.03;;;9.07;;
6105;SDS011;3083;51.508;7.966;2023-04-23T05:56:09;18.33;;;11.00;;
6105;SDS011;3083;51.508;7.966;2023-04-23T05:58:37;19.60;;;10.30;;
6105;SDS011;3083;51.508;7.966;2023-04-23T06:01:04;22.90;;;11.30;;
6105;SDS011;3083;51.508;7.966;2023-04-23T06:03:31;19.60;;;9.80;;
6105;SDS011;3083;51.508;7.966;2023-04-23T06:05:58;16.63;;;10.00;;
6105;SDS011;3083;51.508;7.966;2023-04-23T06:08:25;17.77;;;10.20;;
6105;SDS011;3083;51.508;7.966;2023-04-23T06:10:52;18.20;;;10.23;;
6105;SDS011;3083;51.508;7.966;2023-04-23T06:13:20;16.50;;;9.30;;
6105;SDS011;3083;51.508;7.966;2023-04-23T06:15:48;17.37;;;9.77;;
6105;SDS011;3083;51.508;7.966;2023-04-23T06:18:15;17.70;;;10.17;;
6105;SDS011;3083;51.508;7.966;2023-04-23T06:20:42;17.83;;;10.07;;
6105;SDS011;3083;51.508;7.966;2023-04-23T06:23:09;16.67;;;8.80;;
6105;SDS011;3083;51.508;7.966;2023-04-23T06:25:36;16.40;;;10.00;;
6105;SDS011;3083;51.508;7.966;2023-04-23T06:28:03;14.40;;;9.10;;
6105;SDS011;3083;51.508;7.966;2023-04-23T06:30:30;15.07;;;9.03;;
6105;SDS011;3083;51.508;7.966;2023-04-23T06:32:58;17.03;;;9.47;;
6105;SDS011;3083;51.508;7.966;2023-04-23T06:35:25;13.63;;;9.00;;
6105;SDS011;3083;51.508;7.966;2023-04-23T06:37:52;13.87;;;9.67;;
6105;SDS011;3083;51.508;7.966;2023-04-23T06:40:19;13.60;;;8.97;;
6105;SDS011;3083;51.508;7.966;2023-04-23T06:42:46;14.40;;;9.43;;
6105;SDS011;3083;51.508;7.966;2023-04-23T06:45:12;15.40;;;9.47;;
6105;SDS011;3083;51.508;7.966;2023-04-23T06:47:40;15.80;;;9.50;;
6105;SDS011;3083;51.508;7.966;2023-04-23T06:50:09;15.57;;;9.77;;
6105;SDS011;3083;51.508;7.966;2023-04-23T06:52:36;12.87;;;8.73;;
6105;SDS011;3083;51.508;7.966;2023-04-23T06:55:03;10.60;;;7.77;;
6105;SDS011;3083;51.508;7.966;2023-04-23T06:57:30;12.43;;;8.17;;
6105;SDS011;3083;51.508;7.966;2023-04-23T06:59:57;12.37;;;8.30;;
6105;SDS011;3083;51.508;7.966;2023-04-23T07:02:24;12.87;;;8.97;;
6105;SDS011;3083;51.508;7.966;2023-04-23T07:04:51;11.90;;;8.07;;
6105;SDS011;3083;51.508;7.966;2023-04-23T07:07:19;10.60;;;7.70;;
6105;SDS011;3083;51.508;7.966;2023-04-23T07:09:46;12.53;;;8.00;;
6105;SDS011;3083;51.508;7.966;2023-04-23T07:12:13;12.03;;;8.13;;
6105;SDS011;3083;51.508;7.966;2023-04-23T07:14:40;13.07;;;8.43;;
6105;SDS011;3083;51.508;7.966;2023-04-23T07:17:08;14.27;;;8.60;;
6105;SDS011;3083;51.508;7.966;2023-04-23T07:19:35;12.93;;;8.40;;
6105;SDS011;3083;51.508;7.966;2023-04-23T07:22:02;9.93;;;7.57;;
6105;SDS011;3083;51.508;7.966;2023-04-23T07:24:30;12.50;;;8.47;;
6105;SDS011;3083;51.508;7.966;2023-04-23T07:26:57;13.77;;;8.00;;
6105;SDS011;3083;51.508;7.966;2023-04-23T07:29:26;11.57;;;7.77;;
6105;SDS011;3083;51.508;7.966;2023-04-23T07:31:53;11.83;;;7.77;;
6105;SDS011;3083;51.508;7.966;2023-04-23T07:34:20;11.20;;;7.40;;
6105;SDS011;3083;51.508;7.966;2023-04-23T07:36:47;11.57;;;7.70;;
6105;SDS011;3083;51.508;7.966;2023-04-23T07:39:14;13.00;;;8.00;;
6105;SDS011;3083;51.508;7.966;2023-04-23T07:41:42;13.77;;;7.87;;
6105;SDS011;3083;51.508;7.966;2023-04-23T07:44:09;12.83;;;8.40;;
6105;SDS011;3083;51.508;7.966;2023-04-23T07:46:36;12.33;;;8.10;;
6105;SDS011;3083;51.508;7.966;2023-04-23T07:49:03;12.87;;;8.80;;
6105;SDS011;3083;51.508;7.966;2023-04-23T07:51:31;12.63;;;7.30;;
6105;SDS011;3083;51.508;7.966;2023-04-23T07:53:58;12.30;;;8.63;;
6105;SDS011;3083;51.508;7.966;2023-04-23T07:56:25;11.90;;;8.00;;
6105;SDS011;3083;51.508;7.966;2023-04-23T07:58:53;12.50;;;8.47;;
6105;SDS011;3083;51.508;7.966;2023-04-23T08:01:22;11.70;;;8.00;;
6105;SDS011;3083;51.508;7.966;2023-04-23T08:03:49;11.77;;;8.20;;
6105;SDS011;3083;51.508;7.966;2023-04-23T08:06:16;13.10;;;7.27;;
6105;SDS011;3083;51.508;7.966;2023-04-23T08:08:43;12.47;;;7.53;;
6105;SDS011;3083;51.508;7.966;2023-04-23T08:11:10;10.77;;;7.57;;
6105;SDS011;3083;51.508;7.966;2023-04-23T08:13:37;10.60;;;7.17;;
6105;SDS011;3083;51.508;7.966;2023-04-23T08:16:05;10.33;;;7.10;;
6105;SDS011;3083;51.508;7.966;2023-04-23T08:18:32;11.13;;;7.00;;
6105;SDS011;3083;51.508;7.966;2023-04-23T08:21:00;11.97;;;7.70;;
6105;SDS011;3083;51.508;7.966;2023-04-23T08:23:27;9.37;;;7.00;;
6105;SDS011;3083;51.508;7.966;2023-04-23T08:25:54;11.43;;;7.33;;
6105;SDS011;3083;51.508;7.966;2023-04-23T08:28:21;10.10;;;7.00;;
6105;SDS011;3083;51.508;7.966;2023-04-23T08:30:47;9.00;;;6.47;;
6105;SDS011;3083;51.508;7.966;2023-04-23T08:33:16;10.23;;;6.90;;
6105;SDS011;3083;51.508;7.966;2023-04-23T08:35:43;11.50;;;6.83;;
6105;SDS011;3083;51.508;7.966;2023-04-23T08:38:10;10.73;;;5.97;;
6105;SDS011;3083;51.508;7.966;2023-04-23T08:40:37;8.97;;;5.70;;
6105;SDS011;3083;51.508;7.966;2023-04-23T08:43:08;8.37;;;5.97;;
6105;SDS011;3083;51.508;7.966;2023-04-23T08:45:38;11.33;;;6.47;;
6105;SDS011;3083;51.508;7.966;2023-04-23T08:48:06;8.83;;;5.90;;
6105;SDS011;3083;51.508;7.966;2023-04-23T08:50:37;8.93;;;5.77;;
6105;SDS011;3083;51.508;7.966;2023-04-23T08:53:07;7.43;;;5.30;;
6105;SDS011;3083;51.508;7.966;2023-04-23T08:55:35;10.50;;;5.70;;
6105;SDS011;3083;51.508;7.966;2023-04-23T08:58:02;8.10;;;5.20;;
6105;SDS011;3083;51.508;7.966;2023-04-23T09:00:31;8.57;;;5.30;;
6105;SDS011;3083;51.508;7.966;2023-04-23T09:02:59;8.23;;;4.70;;
6105;SDS011;3083;51.508;7.966;2023-04-23T09:05:26;7.93;;;4.87;;
6105;SDS011;3083;51.508;7.966;2023-04-23T09:07:55;6.50;;;4.57;;
6105;SDS011;3083;51.508;7.966;2023-04-23T09:10:24;7.87;;;4.70;;
6105;SDS011;3083;51.508;7.966;2023-04-23T09:12:51;6.60;;;4.87;;
6105;SDS011;3083;51.508;7.966;2023-04-23T09:15:18;8.10;;;4.77;;
6105;SDS011;3083;51.508;7.966;2023-04-23T09:17:45;7.20;;;4.70;;
6105;SDS011;3083;51.508;7.966;2023-04-23T09:20:14;6.77;;;4.10;;
6105;SDS011;3083;51.508;7.966;2023-04-23T09:22:42;7.13;;;4.17;;
6105;SDS011;3083;51.508;7.966;2023-04-23T09:25:12;10.53;;;4.80;;
6105;SDS011;3083;51.508;7.966;2023-04-23T09:27:40;6.00;;;4.27;;
6105;SDS011;3083;51.508;7.966;2023-04-23T09:30:08;6.03;;;3.70;;
6105;SDS011;3083;51.508;7.966;2023-04-23T09:32:36;5.90;;;3.70;;
6105;SDS011;3083;51.508;7.966;2023-04-23T09:35:05;5.90;;;3.70;;
6105;SDS011;3083;51.508;7.966;2023-04-23T09:37:34;6.27;;;3.40;;
6105;SDS011;3083;51.508;7.966;2023-04-23T09:40:01;6.03;;;2.80;;
6105;SDS011;3083;51.508;7.966;2023-04-23T09:42:34;6.60;;;3.30;;
6105;SDS011;3083;51.508;7.966;2023-04-23T09:45:02;5.00;;;2.80;;
6105;SDS011;3083;51.508;7.966;2023-04-23T09:47:31;6.13;;;3.00;;
6105;SDS011;3083;51.508;7.966;2023-04-23T09:49:59;5.57;;;2.80;;
6105;SDS011;3083;51.508;7.966;2023-04-23T09:52:26;5.67;;;2.90;;
6105;SDS011;3083;51.508;7.966;2023-04-23T09:54:56;6.17;;;3.17;;
6105;SDS011;3083;51.508;7.966;2023-04-23T09:57:24;5.70;;;2.80;;
6105;SDS011;3083;51.508;7.966;2023-04-23T09:59:52;7.73;;;2.73;;
6105;SDS011;3083;51.508;7.966;2023-04-23T10:02:25;4.77;;;2.70;;
6105;SDS011;3083;51.508;7.966;2023-04-23T10:04:53;6.37;;;3.47;;
6105;SDS011;3083;51.508;7.966;2023-04-23T10:07:20;6.60;;;2.70;;
6105;SDS011;3083;51.508;7.966;2023-04-23T10:09:49;5.00;;;2.67;;
6105;SDS011;3083;51.508;7.966;2023-04-23T10:12:16;4.40;;;2.63;;
6105;SDS011;3083;51.508;7.966;2023-04-23T10:14:43;4.90;;;2.70;;
6105;SDS011;3083;51.508;7.966;2023-04-23T10:17:14;5.17;;;2.77;;
6105;SDS011;3083;51.508;7.966;2023-04-23T10:19:42;5.63;;;2.80;;
6105;SDS011;3083;51.508;7.966;2023-04-23T10:22:09;5.60;;;3.03;;
6105;SDS011;3083;51.508;7.966;2023-04-23T10:24:39;4.63;;;2.63;;
6105;SDS011;3083;51.508;7.966;2023-04-23T10:27:09;7.80;;;3.10;;
6105;SDS011;3083;51.508;7.966;2023-04-23T10:29:38;5.80;;;3.17;;
6105;SDS011;3083;51.508;7.966;2023-04-23T10:32:07;5.50;;;3.10;;
6105;SDS011;3083;51.508;7.966;2023-04-23T10:34:35;5.50;;;2.50;;
6105;SDS011;3083;51.508;7.966;2023-04-23T10:37:02;4.13;;;2.40;;
6105;SDS011;3083;51.508;7.966;2023-04-23T10:39:29;6.30;;;2.80;;
6105;SDS011;3083;51.508;7.966;2023-04-23T10:41:58;4.50;;;2.63;;
6105;SDS011;3083;51.508;7.966;2023-04-23T10:44:33;4.30;;;2.40;;
6105;SDS011;3083;51.508;7.966;2023-04-23T10:47:01;5.53;;;2.60;;
6105;SDS011;3083;51.508;7.966;2023-04-23T10:49:30;5.10;;;2.73;;
6105;SDS011;3083;51.508;7.966;2023-04-23T10:52:00;4.93;;;2.80;;
6105;SDS011;3083;51.508;7.966;2023-04-23T10:54:29;5.90;;;2.80;;
6105;SDS011;3083;51.508;7.966;2023-04-23T10:56:57;7.17;;;2.60;;
6105;SDS011;3083;51.508;7.966;2023-04-23T10:59:27;4.47;;;2.70;;
6105;SDS011;3083;51.508;7.966;2023-04-23T11:01:55;4.47;;;2.40;;
6105;SDS011;3083;51.508;7.966;2023-04-23T11:04:24;9.93;;;3.00;;
6105;SDS011;3083;51.508;7.966;2023-04-23T11:06:53;5.73;;;2.73;;
6105;SDS011;3083;51.508;7.966;2023-04-23T11:09:29;6.03;;;3.00;;
6105;SDS011;3083;51.508;7.966;2023-04-23T11:11:57;10.10;;;2.50;;
6105;SDS011;3083;51.508;7.966;2023-04-23T11:17:20;4.17;;;2.53;;
6105;SDS011;3083;51.508;7.966;2023-04-23T11:20:04;5.97;;;2.77;;
6105;SDS011;3083;51.508;7.966;2023-04-23T11:22:34;7.37;;;4.30;;
6105;SDS011;3083;51.508;7.966;2023-04-23T11:25:04;6.10;;;2.77;;
6105;SDS011;3083;51.508;7.966;2023-04-23T11:27:34;5.70;;;2.57;;
6105;SDS011;3083;51.508;7.966;2023-04-23T11:30:05;5.73;;;2.50;;
6105;SDS011;3083;51.508;7.966;2023-04-23T11:32:35;5.80;;;2.40;;
6105;SDS011;3083;51.508;7.966;2023-04-23T11:35:02;5.30;;;2.90;;
6105;SDS011;3083;51.508;7.966;2023-04-23T11:37:31;5.90;;;2.63;;
6105;SDS011;3083;51.508;7.966;2023-04-23T11:39:58;4.37;;;2.30;;
6105;SDS011;3083;51.508;7.966;2023-04-23T11:42:39;5.10;;;2.17;;
6105;SDS011;3083;51.508;7.966;2023-04-23T11:45:14;4.07;;;2.50;;
6105;SDS011;3083;51.508;7.966;2023-04-23T11:47:42;4.80;;;2.57;;
6105;SDS011;3083;51.508;7.966;2023-04-23T11:50:10;4.63;;;2.37;;
6105;SDS011;3083;51.508;7.966;2023-04-23T11:52:42;4.80;;;2.60;;
6105;SDS011;3083;51.508;7.966;2023-04-23T11:55:10;4.40;;;2.40;;
6105;SDS011;3083;51.508;7.966;2023-04-23T11:57:40;5.50;;;2.30;;
6105;SDS011;3083;51.508;7.966;2023-04-23T12:00:12;4.53;;;2.20;;
6105;SDS011;3083;51.508;7.966;2023-04-23T12:02:48;5.57;;;2.60;;
6105;SDS011;3083;51.508;7.966;2023-04-23T12:05:19;7.13;;;2.40;;
6105;SDS011;3083;51.508;7.966;2023-04-23T12:07:48;4.60;;;2.50;;
6105;SDS011;3083;51.508;7.966;2023-04-23T12:10:17;4.37;;;2.27;;
6105;SDS011;3083;51.508;7.966;2023-04-23T12:12:48;7.73;;;3.27;;
6105;SDS011;3083;51.508;7.966;2023-04-23T12:15:16;3.90;;;2.20;;
6105;SDS011;3083;51.508;7.966;2023-04-23T12:17:47;4.15;;;2.30;;
6105;SDS011;3083;51.508;7.966;2023-04-23T12:20:15;4.30;;;2.33;;
6105;SDS011;3083;51.508;7.966;2023-04-23T12:22:46;4.60;;;2.73;;
6105;SDS011;3083;51.508;7.966;2023-04-23T12:25:14;4.97;;;2.00;;
6105;SDS011;3083;51.508;7.966;2023-04-23T12:27:42;4.27;;;2.37;;
6105;SDS011;3083;51.508;7.966;2023-04-23T12:30:11;4.17;;;2.37;;
6105;SDS011;3083;51.508;7.966;2023-04-23T12:32:39;7.80;;;2.57;;
6105;SDS011;3083;51.508;7.966;2023-04-23T12:35:06;4.90;;;2.10;;
6105;SDS011;3083;51.508;7.966;2023-04-23T12:37:35;4.50;;;2.50;;
6105;SDS011;3083;51.508;7.966;2023-04-23T12:40:02;5.00;;;2.07;;
6105;SDS011;3083;51.508;7.966;2023-04-23T12:42:31;3.37;;;2.10;;
6105;SDS011;3083;51.508;7.966;2023-04-23T12:45:05;4.07;;;2.10;;
6105;SDS011;3083;51.508;7.966;2023-04-23T12:47:34;4.13;;;2.10;;
6105;SDS011;3083;51.508;7.966;2023-04-23T12:50:00;5.00;;;2.40;;
6105;SDS011;3083;51.508;7.966;2023-04-23T12:52:29;4.07;;;2.17;;
6105;SDS011;3083;51.508;7.966;2023-04-23T12:54:56;4.10;;;2.03;;
6105;SDS011;3083;51.508;7.966;2023-04-23T12:57:25;4.37;;;2.07;;
6105;SDS011;3083;51.508;7.966;2023-04-23T12:59:52;5.77;;;2.00;;
6105;SDS011;3083;51.508;7.966;2023-04-23T13:02:21;4.10;;;2.20;;
6105;SDS011;3083;51.508;7.966;2023-04-23T13:04:49;3.90;;;1.80;;
6105;SDS011;3083;51.508;7.966;2023-04-23T13:07:18;3.73;;;2.07;;
6105;SDS011;3083;51.508;7.966;2023-04-23T13:09:45;3.53;;;1.80;;
6105;SDS011;3083;51.508;7.966;2023-04-23T13:12:12;3.80;;;1.83;;
6105;SDS011;3083;51.508;7.966;2023-04-23T13:14:39;4.60;;;2.00;;
6105;SDS011;3083;51.508;7.966;2023-04-23T13:17:06;4.43;;;2.50;;
6105;SDS011;3083;51.508;7.966;2023-04-23T13:19:34;4.47;;;2.23;;
6105;SDS011;3083;51.508;7.966;2023-04-23T13:22:03;4.20;;;2.20;;
6105;SDS011;3083;51.508;7.966;2023-04-23T13:24:31;11.13;;;2.80;;
6105;SDS011;3083;51.508;7.966;2023-04-23T13:26:58;4.70;;;2.27;;
6105;SDS011;3083;51.508;7.966;2023-04-23T13:29:26;3.50;;;2.10;;
6105;SDS011;3083;51.508;7.966;2023-04-23T13:31:53;4.80;;;2.10;;
6105;SDS011;3083;51.508;7.966;2023-04-23T13:34:20;3.90;;;2.00;;
6105;SDS011;3083;51.508;7.966;2023-04-23T13:36:49;3.60;;;1.93;;
6105;SDS011;3083;51.508;7.966;2023-04-23T13:39:16;5.20;;;2.10;;
6105;SDS011;3083;51.508;7.966;2023-04-23T13:41:44;4.13;;;1.93;;
6105;SDS011;3083;51.508;7.966;2023-04-23T13:44:11;3.60;;;2.07;;
6105;SDS011;3083;51.508;7.966;2023-04-23T13:46:39;4.63;;;2.17;;
6105;SDS011;3083;51.508;7.966;2023-04-23T13:49:07;3.40;;;1.90;;
6105;SDS011;3083;51.508;7.966;2023-04-23T13:51:34;3.40;;;1.67;;
6105;SDS011;3083;51.508;7.966;2023-04-23T13:54:02;3.50;;;1.70;;
6105;SDS011;3083;51.508;7.966;2023-04-23T13:56:29;3.57;;;1.73;;
6105;SDS011;3083;51.508;7.966;2023-04-23T13:58:56;3.47;;;1.63;;
6105;SDS011;3083;51.508;7.966;2023-04-23T14:01:26;3.60;;;1.50;;
6105;SDS011;3083;51.508;7.966;2023-04-23T14:03:54;3.50;;;1.70;;
6105;SDS011;3083;51.508;7.966;2023-04-23T14:06:22;3.20;;;1.80;;
6105;SDS011;3083;51.508;7.966;2023-04-23T14:08:49;3.73;;;1.73;;
6105;SDS011;3083;51.508;7.966;2023-04-23T14:11:17;4.47;;;1.73;;
6105;SDS011;3083;51.508;7.966;2023-04-23T14:13:44;6.30;;;1.70;;
6105;SDS011;3083;51.508;7.966;2023-04-23T14:16:11;3.23;;;1.50;;
6105;SDS011;3083;51.508;7.966;2023-04-23T14:18:38;3.27;;;1.70;;
6105;SDS011;3083;51.508;7.966;2023-04-23T14:21:05;3.43;;;1.70;;
6105;SDS011;3083;51.508;7.966;2023-04-23T14:23:42;3.13;;;1.30;;
6105;SDS011;3083;51.508;7.966;2023-04-23T14:26:20;3.20;;;1.50;;
6105;SDS011;3083;51.508;7.966;2023-04-23T14:28:53;3.20;;;1.67;;
6105;SDS011;3083;51.508;7.966;2023-04-23T14:31:23;5.37;;;1.70;;
6105;SDS011;3083;51.508;7.966;2023-04-23T14:33:50;3.20;;;1.63;;
6105;SDS011;3083;51.508;7.966;2023-04-23T14:36:17;3.00;;;1.50;;
6105;SDS011;3083;51.508;7.966;2023-04-23T14:38:44;4.50;;;1.77;;
6105;SDS011;3083;51.508;7.966;2023-04-23T14:41:11;4.23;;;2.00;;
6105;SDS011;3083;51.508;7.966;2023-04-23T14:43:39;6.13;;;2.30;;
6105;SDS011;3083;51.508;7.966;2023-04-23T14:46:06;6.33;;;2.17;;
6105;SDS011;3083;51.508;7.966;2023-04-23T14:48:33;5.13;;;2.33;;
6105;SDS011;3083;51.508;7.966;2023-04-23T14:51:00;3.70;;;2.00;;
6105;SDS011;3083;51.508;7.966;2023-04-23T14:53:28;6.50;;;2.43;;
6105;SDS011;3083;51.508;7.966;2023-04-23T14:55:55;5.43;;;2.00;;
6105;SDS011;3083;51.508;7.966;2023-04-23T14:58:22;3.80;;;2.00;;
6105;SDS011;3083;51.508;7.966;2023-04-23T15:00:50;3.27;;;1.80;;
6105;SDS011;3083;51.508;7.966;2023-04-23T15:03:17;4.80;;;2.27;;
6105;SDS011;3083;51.508;7.966;2023-04-23T15:05:44;5.70;;;2.67;;
6105;SDS011;3083;51.508;7.966;2023-04-23T15:08:11;3.80;;;1.80;;
6105;SDS011;3083;51.508;7.966;2023-04-23T15:10:38;4.43;;;2.00;;